sensor_id;sensor_type;location;lat;lon;timestamp;temperature;humidity
9527;DHT22;4802;51.494;6.770;2022-07-30T00:00:32;19.40;1.00
9527;DHT22;4802;51.494;6.770;2022-07-30T00:03:02;19.40;1.00
9527;DHT22;4802;51.494;6.770;2022-07-30T00:05:30;19.60;1.00
9527;DHT22;4802;51.494;6.770;2022-07-30T00:08:00;19.30;1.00
9527;DHT22;4802;51.494;6.770;2022-07-30T00:10:29;19.20;1.00
9527;DHT22;4802;51.494;6.770;2022-07-30T00:12:59;19.20;1.00
9527;DHT22;4802;51.494;6.770;2022-07-30T00:15:28;19.20;1.00
9527;DHT22;4802;51.494;6.770;2022-07-30T00:17:59;19.20;1.00
9527;DHT22;4802;51.494;6.770;2022-07-30T00:20:29;19.10;1.00
9527;DHT22;4802;51.494;6.770;2022-07-30T00:23:02;19.10;1.00
9527;DHT22;4802;51.494;6.770;2022-07-30T00:25:32;19.10;1.00
9527;DHT22;4802;51.494;6.770;2022-07-30T00:28:01;19.00;1.00
9527;DHT22;4802;51.494;6.770;2022-07-30T00:30:31;19.00;1.00
9527;DHT22;4802;51.494;6.770;2022-07-30T00:33:02;19.10;1.00
9527;DHT22;4802;51.494;6.770;2022-07-30T00:35:34;19.10;1.00
9527;DHT22;4802;51.494;6.770;2022-07-30T00:38:03;19.40;1.00
9527;DHT22;4802;51.494;6.770;2022-07-30T00:40:32;19.00;1.00
9527;DHT22;4802;51.494;6.770;2022-07-30T00:43:01;19.00;1.00
9527;DHT22;4802;51.494;6.770;2022-07-30T00:45:31;19.00;1.00
9527;DHT22;4802;51.494;6.770;2022-07-30T00:48:02;19.00;1.00
9527;DHT22;4802;51.494;6.770;2022-07-30T00:50:32;19.00;1.00
9527;DHT22;4802;51.494;6.770;2022-07-30T00:53:03;18.90;1.00
9527;DHT22;4802;51.494;6.770;2022-07-30T00:55:33;19.00;1.00
9527;DHT22;4802;51.494;6.770;2022-07-30T00:58:02;18.90;1.00
9527;DHT22;4802;51.494;6.770;2022-07-30T01:00:33;18.80;1.00
9527;DHT22;4802;51.494;6.770;2022-07-30T01:03:03;18.70;1.00
9527;DHT22;4802;51.494;6.770;2022-07-30T01:05:33;18.70;1.00
9527;DHT22;4802;51.494;6.770;2022-07-30T01:08:02;18.60;1.00
9527;DHT22;4802;51.494;6.770;2022-07-30T01:10:32;18.70;1.00
9527;DHT22;4802;51.494;6.770;2022-07-30T01:13:01;18.60;1.00
9527;DHT22;4802;51.494;6.770;2022-07-30T01:15:32;18.60;1.00
9527;DHT22;4802;51.494;6.770;2022-07-30T01:18:06;18.60;1.00
9527;DHT22;4802;51.494;6.770;2022-07-30T01:20:40;18.70;1.00
9527;DHT22;4802;51.494;6.770;2022-07-30T01:23:14;18.70;1.00
9527;DHT22;4802;51.494;6.770;2022-07-30T01:25:53;18.70;1.00
9527;DHT22;4802;51.494;6.770;2022-07-30T01:28:27;18.60;1.00
9527;DHT22;4802;51.494;6.770;2022-07-30T01:30:59;18.50;1.00
9527;DHT22;4802;51.494;6.770;2022-07-30T01:33:30;18.50;1.00
9527;DHT22;4802;51.494;6.770;2022-07-30T01:36:01;18.50;1.00
9527;DHT22;4802;51.494;6.770;2022-07-30T01:38:31;18.50;1.00
9527;DHT22;4802;51.494;6.770;2022-07-30T01:41:02;18.50;1.00
9527;DHT22;4802;51.494;6.770;2022-07-30T01:43:34;18.60;1.00
9527;DHT22;4802;51.494;6.770;2022-07-30T01:46:04;18.50;1.00
9527;DHT22;4802;51.494;6.770;2022-07-30T01:48:40;18.60;1.00
9527;DHT22;4802;51.494;6.770;2022-07-30T01:51:11;18.60;1.00
9527;DHT22;4802;51.494;6.770;2022-07-30T01:53:42;18.50;1.00
9527;DHT22;4802;51.494;6.770;2022-07-30T01:56:14;18.50;1.00
9527;DHT22;4802;51.494;6.770;2022-07-30T01:58:51;18.40;1.00
9527;DHT22;4802;51.494;6.770;2022-07-30T02:01:22;18.40;1.00
9527;DHT22;4802;51.494;6.770;2022-07-30T02:03:52;18.40;1.00
9527;DHT22;4802;51.494;6.770;2022-07-30T02:06:25;18.40;1.00
9527;DHT22;4802;51.494;6.770;2022-07-30T02:09:03;18.40;1.00
9527;DHT22;4802;51.494;6.770;2022-07-30T02:11:41;18.40;1.00
9527;DHT22;4802;51.494;6.770;2022-07-30T02:14:29;18.90;1.00
9527;DHT22;4802;51.494;6.770;2022-07-30T02:17:02;18.60;1.00
9527;DHT22;4802;51.494;6.770;2022-07-30T02:19:44;18.80;1.00
9527;DHT22;4802;51.494;6.770;2022-07-30T02:22:18;19.00;1.00
9527;DHT22;4802;51.494;6.770;2022-07-30T02:24:50;19.20;1.00
9527;DHT22;4802;51.494;6.770;2022-07-30T02:27:25;19.20;1.00
9527;DHT22;4802;51.494;6.770;2022-07-30T02:29:57;19.20;1.00
9527;DHT22;4802;51.494;6.770;2022-07-30T02:32:32;19.10;1.00
9527;DHT22;4802;51.494;6.770;2022-07-30T02:35:08;19.20;1.00
9527;DHT22;4802;51.494;6.770;2022-07-30T02:37:40;19.20;1.00
9527;DHT22;4802;51.494;6.770;2022-07-30T02:40:14;19.00;1.00
9527;DHT22;4802;51.494;6.770;2022-07-30T02:42:47;18.90;1.00
9527;DHT22;4802;51.494;6.770;2022-07-30T02:45:18;18.80;1.00
9527;DHT22;4802;51.494;6.770;2022-07-30T02:47:50;18.90;1.00
9527;DHT22;4802;51.494;6.770;2022-07-30T02:50:20;18.90;1.00
9527;DHT22;4802;51.494;6.770;2022-07-30T02:52:51;19.00;1.00
9527;DHT22;4802;51.494;6.770;2022-07-30T02:55:22;18.90;1.00
9527;DHT22;4802;51.494;6.770;2022-07-30T02:57:54;19.00;1.00
9527;DHT22;4802;51.494;6.770;2022-07-30T03:00:25;19.10;1.00
9527;DHT22;4802;51.494;6.770;2022-07-30T03:02:58;19.00;1.00
9527;DHT22;4802;51.494;6.770;2022-07-30T03:05:28;19.00;1.00
9527;DHT22;4802;51.494;6.770;2022-07-30T03:07:58;18.90;1.00
9527;DHT22;4802;51.494;6.770;2022-07-30T03:10:28;19.00;1.00
9527;DHT22;4802;51.494;6.770;2022-07-30T03:13:00;18.90;1.00
9527;DHT22;4802;51.494;6.770;2022-07-30T03:15:30;18.80;1.00
9527;DHT22;4802;51.494;6.770;2022-07-30T03:18:06;18.80;1.00
9527;DHT22;4802;51.494;6.770;2022-07-30T03:20:38;18.60;1.00
9527;DHT22;4802;51.494;6.770;2022-07-30T03:23:09;18.50;1.00
9527;DHT22;4802;51.494;6.770;2022-07-30T03:25:39;18.50;1.00
9527;DHT22;4802;51.494;6.770;2022-07-30T03:28:11;18.50;1.00
9527;DHT22;4802;51.494;6.770;2022-07-30T03:30:41;18.50;1.00
9527;DHT22;4802;51.494;6.770;2022-07-30T03:33:11;18.60;1.00
9527;DHT22;4802;51.494;6.770;2022-07-30T03:35:42;18.60;6.20
9527;DHT22;4802;51.494;6.770;2022-07-30T03:38:12;18.60;9.00
9527;DHT22;4802;51.494;6.770;2022-07-30T03:40:42;18.80;1.00
9527;DHT22;4802;51.494;6.770;2022-07-30T03:43:14;18.80;1.00
9527;DHT22;4802;51.494;6.770;2022-07-30T03:46:01;18.70;1.00
9527;DHT22;4802;51.494;6.770;2022-07-30T03:48:30;18.70;1.00
9527;DHT22;4802;51.494;6.770;2022-07-30T03:51:03;18.60;3.60
9527;DHT22;4802;51.494;6.770;2022-07-30T03:53:34;18.50;10.80
9527;DHT22;4802;51.494;6.770;2022-07-30T03:56:03;18.40;27.30
9527;DHT22;4802;51.494;6.770;2022-07-30T03:58:33;18.30;44.60
9527;DHT22;4802;51.494;6.770;2022-07-30T04:01:05;18.20;53.50
9527;DHT22;4802;51.494;6.770;2022-07-30T04:03:34;18.10;80.80
9527;DHT22;4802;51.494;6.770;2022-07-30T04:06:04;18.10;94.90
9527;DHT22;4802;51.494;6.770;2022-07-30T04:08:33;18.20;55.70
9527;DHT22;4802;51.494;6.770;2022-07-30T04:11:02;18.20;34.80
9527;DHT22;4802;51.494;6.770;2022-07-30T04:13:33;18.10;73.30
9527;DHT22;4802;51.494;6.770;2022-07-30T04:16:08;18.10;45.40
9527;DHT22;4802;51.494;6.770;2022-07-30T04:18:59;18.10;79.70
9527;DHT22;4802;51.494;6.770;2022-07-30T04:21:29;18.00;90.50
9527;DHT22;4802;51.494;6.770;2022-07-30T04:24:00;18.00;99.90
9527;DHT22;4802;51.494;6.770;2022-07-30T04:26:33;18.20;74.40
9527;DHT22;4802;51.494;6.770;2022-07-30T04:29:06;18.30;48.50
9527;DHT22;4802;51.494;6.770;2022-07-30T04:31:45;18.50;53.10
9527;DHT22;4802;51.494;6.770;2022-07-30T04:34:15;18.40;55.30
9527;DHT22;4802;51.494;6.770;2022-07-30T04:36:44;18.50;54.30
9527;DHT22;4802;51.494;6.770;2022-07-30T04:39:13;18.60;41.20
9527;DHT22;4802;51.494;6.770;2022-07-30T04:41:43;18.60;20.30
9527;DHT22;4802;51.494;6.770;2022-07-30T04:44:17;18.70;28.10
9527;DHT22;4802;51.494;6.770;2022-07-30T04:46:47;18.80;21.00
9527;DHT22;4802;51.494;6.770;2022-07-30T04:49:17;19.00;1.20
9527;DHT22;4802;51.494;6.770;2022-07-30T04:51:48;19.30;1.00
9527;DHT22;4802;51.494;6.770;2022-07-30T04:54:20;19.30;1.00
9527;DHT22;4802;51.494;6.770;2022-07-30T04:56:50;19.40;1.00
9527;DHT22;4802;51.494;6.770;2022-07-30T04:59:23;19.70;1.00
9527;DHT22;4802;51.494;6.770;2022-07-30T05:01:56;19.90;1.00
9527;DHT22;4802;51.494;6.770;2022-07-30T05:04:27;19.80;1.00
9527;DHT22;4802;51.494;6.770;2022-07-30T05:06:58;19.80;1.00
9527;DHT22;4802;51.494;6.770;2022-07-30T05:09:28;19.80;1.00
9527;DHT22;4802;51.494;6.770;2022-07-30T05:11:57;19.90;1.00
9527;DHT22;4802;51.494;6.770;2022-07-30T05:14:29;19.80;1.00
9527;DHT22;4802;51.494;6.770;2022-07-30T05:16:58;19.70;1.00
9527;DHT22;4802;51.494;6.770;2022-07-30T05:19:28;19.50;1.00
9527;DHT22;4802;51.494;6.770;2022-07-30T05:21:57;19.40;1.00
9527;DHT22;4802;51.494;6.770;2022-07-30T05:24:32;19.40;1.00
9527;DHT22;4802;51.494;6.770;2022-07-30T05:27:01;19.40;1.00
9527;DHT22;4802;51.494;6.770;2022-07-30T05:29:32;19.30;1.00
9527;DHT22;4802;51.494;6.770;2022-07-30T05:32:01;19.20;12.00
9527;DHT22;4802;51.494;6.770;2022-07-30T05:34:33;19.10;20.30
9527;DHT22;4802;51.494;6.770;2022-07-30T05:37:02;19.20;8.50
9527;DHT22;4802;51.494;6.770;2022-07-30T05:39:35;19.10;29.70
9527;DHT22;4802;51.494;6.770;2022-07-30T05:42:24;19.10;51.60
9527;DHT22;4802;51.494;6.770;2022-07-30T05:44:55;19.20;31.20
9527;DHT22;4802;51.494;6.770;2022-07-30T05:47:24;19.40;1.00
9527;DHT22;4802;51.494;6.770;2022-07-30T05:49:53;19.50;1.00
9527;DHT22;4802;51.494;6.770;2022-07-30T05:52:28;19.70;1.00
9527;DHT22;4802;51.494;6.770;2022-07-30T05:54:58;19.70;1.00
9527;DHT22;4802;51.494;6.770;2022-07-30T05:57:27;19.70;1.00
9527;DHT22;4802;51.494;6.770;2022-07-30T05:59:57;19.70;1.00
9527;DHT22;4802;51.494;6.770;2022-07-30T06:02:26;19.70;1.00
9527;DHT22;4802;51.494;6.770;2022-07-30T06:04:55;19.70;1.00
9527;DHT22;4802;51.494;6.770;2022-07-30T06:07:25;19.80;1.00
9527;DHT22;4802;51.494;6.770;2022-07-30T06:09:54;19.80;1.00
9527;DHT22;4802;51.494;6.770;2022-07-30T06:12:26;19.70;1.00
9527;DHT22;4802;51.494;6.770;2022-07-30T06:14:57;19.90;1.00
9527;DHT22;4802;51.494;6.770;2022-07-30T06:17:26;20.10;1.00
9527;DHT22;4802;51.494;6.770;2022-07-30T06:19:57;20.50;1.00
9527;DHT22;4802;51.494;6.770;2022-07-30T06:22:29;20.90;1.00
9527;DHT22;4802;51.494;6.770;2022-07-30T06:24:58;21.00;1.00
9527;DHT22;4802;51.494;6.770;2022-07-30T06:27:29;21.10;1.00
9527;DHT22;4802;51.494;6.770;2022-07-30T06:30:08;20.70;1.00
9527;DHT22;4802;51.494;6.770;2022-07-30T06:32:38;20.80;1.00
9527;DHT22;4802;51.494;6.770;2022-07-30T06:35:10;20.50;1.00
9527;DHT22;4802;51.494;6.770;2022-07-30T06:37:39;20.50;1.00
9527;DHT22;4802;51.494;6.770;2022-07-30T06:40:29;20.30;1.00
9527;DHT22;4802;51.494;6.770;2022-07-30T06:42:58;20.20;1.00
9527;DHT22;4802;51.494;6.770;2022-07-30T06:45:31;20.20;1.00
9527;DHT22;4802;51.494;6.770;2022-07-30T06:48:00;20.20;1.00
9527;DHT22;4802;51.494;6.770;2022-07-30T06:50:29;20.20;1.00
9527;DHT22;4802;51.494;6.770;2022-07-30T06:52:58;20.10;1.00
9527;DHT22;4802;51.494;6.770;2022-07-30T06:55:27;20.20;1.00
9527;DHT22;4802;51.494;6.770;2022-07-30T06:57:56;20.50;1.00
9527;DHT22;4802;51.494;6.770;2022-07-30T07:00:25;20.40;1.00
9527;DHT22;4802;51.494;6.770;2022-07-30T07:02:56;20.40;1.00
9527;DHT22;4802;51.494;6.770;2022-07-30T07:05:25;20.60;1.00
9527;DHT22;4802;51.494;6.770;2022-07-30T07:07:55;20.90;1.00
9527;DHT22;4802;51.494;6.770;2022-07-30T07:10:26;21.00;1.00
9527;DHT22;4802;51.494;6.770;2022-07-30T07:12:56;21.20;1.00
9527;DHT22;4802;51.494;6.770;2022-07-30T07:15:27;21.00;1.00
9527;DHT22;4802;51.494;6.770;2022-07-30T07:18:06;21.20;1.00
9527;DHT22;4802;51.494;6.770;2022-07-30T07:20:38;20.90;1.00
9527;DHT22;4802;51.494;6.770;2022-07-30T07:23:07;21.60;1.00
9527;DHT22;4802;51.494;6.770;2022-07-30T07:25:39;22.60;1.00
9527;DHT22;4802;51.494;6.770;2022-07-30T07:28:08;23.70;1.00
9527;DHT22;4802;51.494;6.770;2022-07-30T07:30:40;25.00;1.00
9527;DHT22;4802;51.494;6.770;2022-07-30T07:33:11;26.20;1.00
9527;DHT22;4802;51.494;6.770;2022-07-30T07:35:42;27.00;1.00
9527;DHT22;4802;51.494;6.770;2022-07-30T07:38:18;27.60;1.00
9527;DHT22;4802;51.494;6.770;2022-07-30T07:40:47;27.80;1.00
9527;DHT22;4802;51.494;6.770;2022-07-30T07:43:17;28.00;1.00
9527;DHT22;4802;51.494;6.770;2022-07-30T07:45:47;28.40;1.00
9527;DHT22;4802;51.494;6.770;2022-07-30T07:48:18;29.10;1.00
9527;DHT22;4802;51.494;6.770;2022-07-30T07:50:47;29.70;1.00
9527;DHT22;4802;51.494;6.770;2022-07-30T07:53:24;30.50;1.00
9527;DHT22;4802;51.494;6.770;2022-07-30T07:55:54;31.10;1.00
9527;DHT22;4802;51.494;6.770;2022-07-30T07:58:26;31.60;1.00
9527;DHT22;4802;51.494;6.770;2022-07-30T08:00:58;32.20;1.00
9527;DHT22;4802;51.494;6.770;2022-07-30T08:03:29;32.40;1.00
9527;DHT22;4802;51.494;6.770;2022-07-30T08:05:58;32.70;1.00
9527;DHT22;4802;51.494;6.770;2022-07-30T08:08:33;32.70;1.00
9527;DHT22;4802;51.494;6.770;2022-07-30T08:11:04;33.00;1.00
9527;DHT22;4802;51.494;6.770;2022-07-30T08:13:35;33.00;1.00
9527;DHT22;4802;51.494;6.770;2022-07-30T08:16:19;32.30;1.00
9527;DHT22;4802;51.494;6.770;2022-07-30T08:18:50;32.30;1.00
9527;DHT22;4802;51.494;6.770;2022-07-30T08:21:20;32.50;1.00
9527;DHT22;4802;51.494;6.770;2022-07-30T08:23:49;33.00;1.00
9527;DHT22;4802;51.494;6.770;2022-07-30T08:26:19;33.10;1.00
9527;DHT22;4802;51.494;6.770;2022-07-30T08:28:48;33.20;1.00
9527;DHT22;4802;51.494;6.770;2022-07-30T08:31:20;33.40;1.00
9527;DHT22;4802;51.494;6.770;2022-07-30T08:33:51;32.80;1.00
9527;DHT22;4802;51.494;6.770;2022-07-30T08:36:21;32.40;1.00
9527;DHT22;4802;51.494;6.770;2022-07-30T08:38:52;31.80;1.00
9527;DHT22;4802;51.494;6.770;2022-07-30T08:41:23;32.00;1.00
9527;DHT22;4802;51.494;6.770;2022-07-30T08:43:54;32.50;1.00
9527;DHT22;4802;51.494;6.770;2022-07-30T08:46:24;32.90;1.00
9527;DHT22;4802;51.494;6.770;2022-07-30T08:48:58;31.90;1.00
9527;DHT22;4802;51.494;6.770;2022-07-30T08:51:38;31.00;1.00
9527;DHT22;4802;51.494;6.770;2022-07-30T08:54:11;30.20;1.00
9527;DHT22;4802;51.494;6.770;2022-07-30T08:56:41;30.60;1.00
9527;DHT22;4802;51.494;6.770;2022-07-30T08:59:10;31.00;1.00
9527;DHT22;4802;51.494;6.770;2022-07-30T09:01:40;31.50;1.00
9527;DHT22;4802;51.494;6.770;2022-07-30T09:04:12;32.30;1.00
9527;DHT22;4802;51.494;6.770;2022-07-30T09:06:42;32.20;1.00
9527;DHT22;4802;51.494;6.770;2022-07-30T09:09:14;31.40;1.00
9527;DHT22;4802;51.494;6.770;2022-07-30T09:11:44;31.40;1.00
9527;DHT22;4802;51.494;6.770;2022-07-30T09:14:14;31.70;1.00
9527;DHT22;4802;51.494;6.770;2022-07-30T09:16:44;30.80;1.00
9527;DHT22;4802;51.494;6.770;2022-07-30T09:19:16;30.10;1.00
9527;DHT22;4802;51.494;6.770;2022-07-30T09:21:58;29.60;99.90
9527;DHT22;4802;51.494;6.770;2022-07-30T09:24:40;30.40;1.00
9527;DHT22;4802;51.494;6.770;2022-07-30T09:27:16;30.60;1.00
9527;DHT22;4802;51.494;6.770;2022-07-30T09:29:56;31.50;1.00
9527;DHT22;4802;51.494;6.770;2022-07-30T09:32:46;31.30;1.00
9527;DHT22;4802;51.494;6.770;2022-07-30T09:35:19;31.50;1.00
9527;DHT22;4802;51.494;6.770;2022-07-30T09:37:58;31.70;1.00
9527;DHT22;4802;51.494;6.770;2022-07-30T09:40:33;31.70;1.00
9527;DHT22;4802;51.494;6.770;2022-07-30T09:43:04;31.20;1.00
9527;DHT22;4802;51.494;6.770;2022-07-30T09:45:55;30.90;1.00
9527;DHT22;4802;51.494;6.770;2022-07-30T09:48:28;31.30;1.00
9527;DHT22;4802;51.494;6.770;2022-07-30T09:51:04;30.10;99.90
9527;DHT22;4802;51.494;6.770;2022-07-30T09:54:02;30.90;1.00
9527;DHT22;4802;51.494;6.770;2022-07-30T09:56:38;31.70;1.00
9527;DHT22;4802;51.494;6.770;2022-07-30T09:59:27;32.20;1.00
9527;DHT22;4802;51.494;6.770;2022-07-30T10:02:02;31.60;1.00
9527;DHT22;4802;51.494;6.770;2022-07-30T10:04:36;30.90;99.90
9527;DHT22;4802;51.494;6.770;2022-07-30T10:07:19;29.80;99.90
9527;DHT22;4802;51.494;6.770;2022-07-30T10:09:52;29.50;99.90
9527;DHT22;4802;51.494;6.770;2022-07-30T10:12:23;29.80;99.90
9527;DHT22;4802;51.494;6.770;2022-07-30T10:14:55;29.60;99.90
9527;DHT22;4802;51.494;6.770;2022-07-30T10:17:31;29.60;99.90
9527;DHT22;4802;51.494;6.770;2022-07-30T10:20:06;29.60;99.90
9527;DHT22;4802;51.494;6.770;2022-07-30T10:22:45;29.70;99.90
9527;DHT22;4802;51.494;6.770;2022-07-30T10:25:17;29.20;99.90
9527;DHT22;4802;51.494;6.770;2022-07-30T10:27:52;28.60;99.90
9527;DHT22;4802;51.494;6.770;2022-07-30T10:30:25;28.40;99.90
9527;DHT22;4802;51.494;6.770;2022-07-30T10:32:58;28.40;99.90
9527;DHT22;4802;51.494;6.770;2022-07-30T10:35:29;28.90;99.90
9527;DHT22;4802;51.494;6.770;2022-07-30T10:38:10;28.90;99.90
9527;DHT22;4802;51.494;6.770;2022-07-30T10:40:50;29.50;99.90
9527;DHT22;4802;51.494;6.770;2022-07-30T10:43:52;29.30;99.90
9527;DHT22;4802;51.494;6.770;2022-07-30T10:46:37;30.10;99.90
9527;DHT22;4802;51.494;6.770;2022-07-30T10:49:11;29.60;99.90
9527;DHT22;4802;51.494;6.770;2022-07-30T10:51:46;29.90;99.90
9527;DHT22;4802;51.494;6.770;2022-07-30T10:54:39;29.60;99.90
9527;DHT22;4802;51.494;6.770;2022-07-30T10:57:13;29.30;99.90
9527;DHT22;4802;51.494;6.770;2022-07-30T11:00:10;29.30;99.90
9527;DHT22;4802;51.494;6.770;2022-07-30T11:03:12;29.60;99.90
9527;DHT22;4802;51.494;6.770;2022-07-30T11:06:27;29.50;99.90
9527;DHT22;4802;51.494;6.770;2022-07-30T11:08:57;29.50;99.90
9527;DHT22;4802;51.494;6.770;2022-07-30T11:11:54;29.60;99.90
9527;DHT22;4802;51.494;6.770;2022-07-30T11:14:57;29.40;99.90
9527;DHT22;4802;51.494;6.770;2022-07-30T11:18:05;29.70;99.90
9527;DHT22;4802;51.494;6.770;2022-07-30T11:20:40;29.50;99.90
9527;DHT22;4802;51.494;6.770;2022-07-30T11:23:37;29.20;99.90
9527;DHT22;4802;51.494;6.770;2022-07-30T11:26:09;29.30;99.90
9527;DHT22;4802;51.494;6.770;2022-07-30T11:32:27;29.20;99.90
9527;DHT22;4802;51.494;6.770;2022-07-30T11:35:18;29.40;99.90
9527;DHT22;4802;51.494;6.770;2022-07-30T11:37:58;29.50;99.90
9527;DHT22;4802;51.494;6.770;2022-07-30T11:40:32;29.10;99.90
9527;DHT22;4802;51.494;6.770;2022-07-30T11:43:33;29.00;99.90
9527;DHT22;4802;51.494;6.770;2022-07-30T11:46:12;29.10;99.90
9527;DHT22;4802;51.494;6.770;2022-07-30T11:48:59;29.10;99.90
9527;DHT22;4802;51.494;6.770;2022-07-30T11:51:39;29.20;99.90
9527;DHT22;4802;51.494;6.770;2022-07-30T11:54:14;29.10;99.90
9527;DHT22;4802;51.494;6.770;2022-07-30T11:56:49;28.90;99.90
9527;DHT22;4802;51.494;6.770;2022-07-30T11:59:19;29.00;99.90
9527;DHT22;4802;51.494;6.770;2022-07-30T12:02:24;29.00;99.90
9527;DHT22;4802;51.494;6.770;2022-07-30T12:04:56;29.10;99.90
9527;DHT22;4802;51.494;6.770;2022-07-30T12:07:36;29.00;99.90
9527;DHT22;4802;51.494;6.770;2022-07-30T12:10:13;29.20;99.90
9527;DHT22;4802;51.494;6.770;2022-07-30T12:13:05;29.40;99.90
9527;DHT22;4802;51.494;6.770;2022-07-30T12:15:43;29.40;99.90
9527;DHT22;4802;51.494;6.770;2022-07-30T12:25:38;28.60;99.90
9527;DHT22;4802;51.494;6.770;2022-07-30T12:28:21;28.30;99.90
9527;DHT22;4802;51.494;6.770;2022-07-30T12:30:53;28.40;99.90
9527;DHT22;4802;51.494;6.770;2022-07-30T12:33:32;28.50;99.90
9527;DHT22;4802;51.494;6.770;2022-07-30T12:36:08;28.50;99.90
9527;DHT22;4802;51.494;6.770;2022-07-30T12:38:44;28.40;99.90
9527;DHT22;4802;51.494;6.770;2022-07-30T12:41:42;28.30;99.90
9527;DHT22;4802;51.494;6.770;2022-07-30T12:44:37;28.10;99.90
9527;DHT22;4802;51.494;6.770;2022-07-30T12:47:22;28.30;99.90
9527;DHT22;4802;51.494;6.770;2022-07-30T12:49:59;28.40;99.90
9527;DHT22;4802;51.494;6.770;2022-07-30T12:52:36;28.70;99.90
9527;DHT22;4802;51.494;6.770;2022-07-30T12:55:31;28.80;99.90
9527;DHT22;4802;51.494;6.770;2022-07-30T12:58:04;29.10;99.90
9527;DHT22;4802;51.494;6.770;2022-07-30T13:01:00;28.70;99.90
9527;DHT22;4802;51.494;6.770;2022-07-30T13:03:42;28.60;99.90
9527;DHT22;4802;51.494;6.770;2022-07-30T13:06:18;28.40;99.90
9527;DHT22;4802;51.494;6.770;2022-07-30T13:08:54;28.70;99.90
9527;DHT22;4802;51.494;6.770;2022-07-30T13:11:39;28.70;99.90
9527;DHT22;4802;51.494;6.770;2022-07-30T13:14:21;28.90;99.90
9527;DHT22;4802;51.494;6.770;2022-07-30T13:16:54;29.00;99.90
9527;DHT22;4802;51.494;6.770;2022-07-30T13:19:25;29.20;99.90
9527;DHT22;4802;51.494;6.770;2022-07-30T13:22:00;29.00;99.90
9527;DHT22;4802;51.494;6.770;2022-07-30T13:24:33;29.10;99.90
9527;DHT22;4802;51.494;6.770;2022-07-30T13:27:15;28.90;99.90
9527;DHT22;4802;51.494;6.770;2022-07-30T13:29:50;29.00;99.90
9527;DHT22;4802;51.494;6.770;2022-07-30T13:32:23;29.00;99.90
9527;DHT22;4802;51.494;6.770;2022-07-30T13:34:54;29.00;99.90
9527;DHT22;4802;51.494;6.770;2022-07-30T13:37:31;29.10;99.90
9527;DHT22;4802;51.494;6.770;2022-07-30T13:40:06;28.80;99.90
9527;DHT22;4802;51.494;6.770;2022-07-30T13:42:41;28.30;99.90
9527;DHT22;4802;51.494;6.770;2022-07-30T13:45:11;28.00;99.90
9527;DHT22;4802;51.494;6.770;2022-07-30T13:47:45;27.90;99.90
9527;DHT22;4802;51.494;6.770;2022-07-30T13:50:31;27.70;99.90
9527;DHT22;4802;51.494;6.770;2022-07-30T13:53:02;27.70;99.90
9527;DHT22;4802;51.494;6.770;2022-07-30T13:55:38;27.20;99.90
9527;DHT22;4802;51.494;6.770;2022-07-30T13:58:16;27.70;99.90
9527;DHT22;4802;51.494;6.770;2022-07-30T14:00:48;27.50;99.90
9527;DHT22;4802;51.494;6.770;2022-07-30T14:03:20;27.70;99.90
9527;DHT22;4802;51.494;6.770;2022-07-30T14:06:01;27.70;99.90
9527;DHT22;4802;51.494;6.770;2022-07-30T14:08:37;27.70;99.90
9527;DHT22;4802;51.494;6.770;2022-07-30T14:11:11;27.70;99.90
9527;DHT22;4802;51.494;6.770;2022-07-30T14:13:47;27.70;99.90
9527;DHT22;4802;51.494;6.770;2022-07-30T14:16:26;27.50;99.90
9527;DHT22;4802;51.494;6.770;2022-07-30T14:19:14;27.40;99.90
9527;DHT22;4802;51.494;6.770;2022-07-30T14:21:53;27.20;99.90
9527;DHT22;4802;51.494;6.770;2022-07-30T14:24:23;27.20;99.90
9527;DHT22;4802;51.494;6.770;2022-07-30T14:26:56;27.10;99.90
9527;DHT22;4802;51.494;6.770;2022-07-30T14:29:31;27.00;99.90
9527;DHT22;4802;51.494;6.770;2022-07-30T14:32:02;26.90;99.90
9527;DHT22;4802;51.494;6.770;2022-07-30T14:34:48;26.90;99.90
9527;DHT22;4802;51.494;6.770;2022-07-30T14:37:23;26.90;99.90
9527;DHT22;4802;51.494;6.770;2022-07-30T14:39:53;26.90;99.90
9527;DHT22;4802;51.494;6.770;2022-07-30T14:42:25;26.90;99.90
9527;DHT22;4802;51.494;6.770;2022-07-30T14:45:08;26.60;99.90
9527;DHT22;4802;51.494;6.770;2022-07-30T14:47:39;26.70;99.90
9527;DHT22;4802;51.494;6.770;2022-07-30T14:50:14;26.60;99.90
9527;DHT22;4802;51.494;6.770;2022-07-30T14:52:44;26.90;99.90
9527;DHT22;4802;51.494;6.770;2022-07-30T14:55:15;26.60;99.90
9527;DHT22;4802;51.494;6.770;2022-07-30T14:57:48;26.60;99.90
9527;DHT22;4802;51.494;6.770;2022-07-30T15:00:20;26.60;99.90
9527;DHT22;4802;51.494;6.770;2022-07-30T15:02:53;26.60;99.90
9527;DHT22;4802;51.494;6.770;2022-07-30T15:05:25;26.80;99.90
9527;DHT22;4802;51.494;6.770;2022-07-30T15:07:58;26.80;99.90
9527;DHT22;4802;51.494;6.770;2022-07-30T15:10:39;26.80;99.90
9527;DHT22;4802;51.494;6.770;2022-07-30T15:13:15;26.90;99.90
9527;DHT22;4802;51.494;6.770;2022-07-30T15:15:59;26.80;99.90
9527;DHT22;4802;51.494;6.770;2022-07-30T15:18:29;26.70;99.90
9527;DHT22;4802;51.494;6.770;2022-07-30T15:20:59;26.60;99.90
9527;DHT22;4802;51.494;6.770;2022-07-30T15:23:28;26.60;99.90
9527;DHT22;4802;51.494;6.770;2022-07-30T15:25:58;26.70;99.90
9527;DHT22;4802;51.494;6.770;2022-07-30T15:28:33;26.70;99.90
9527;DHT22;4802;51.494;6.770;2022-07-30T15:31:04;26.80;99.90
9527;DHT22;4802;51.494;6.770;2022-07-30T15:33:38;27.00;99.90
9527;DHT22;4802;51.494;6.770;2022-07-30T15:36:14;26.80;99.90
9527;DHT22;4802;51.494;6.770;2022-07-30T15:38:46;26.90;99.90
9527;DHT22;4802;51.494;6.770;2022-07-30T15:41:17;26.90;99.90
9527;DHT22;4802;51.494;6.770;2022-07-30T15:43:50;26.90;99.90
9527;DHT22;4802;51.494;6.770;2022-07-30T15:46:24;26.70;99.90
9527;DHT22;4802;51.494;6.770;2022-07-30T15:48:56;26.70;99.90
9527;DHT22;4802;51.494;6.770;2022-07-30T15:51:30;26.70;99.90
9527;DHT22;4802;51.494;6.770;2022-07-30T15:54:02;26.70;99.90
9527;DHT22;4802;51.494;6.770;2022-07-30T15:56:34;26.90;99.90
9527;DHT22;4802;51.494;6.770;2022-07-30T15:59:08;26.50;99.90
9527;DHT22;4802;51.494;6.770;2022-07-30T16:01:42;26.40;99.90
9527;DHT22;4802;51.494;6.770;2022-07-30T16:04:31;26.30;99.90
9527;DHT22;4802;51.494;6.770;2022-07-30T16:07:00;26.40;99.90
9527;DHT22;4802;51.494;6.770;2022-07-30T16:09:30;26.40;99.90
9527;DHT22;4802;51.494;6.770;2022-07-30T16:12:04;26.60;99.90
9527;DHT22;4802;51.494;6.770;2022-07-30T16:14:34;26.60;99.90
9527;DHT22;4802;51.494;6.770;2022-07-30T16:17:07;26.70;99.90
9527;DHT22;4802;51.494;6.770;2022-07-30T16:19:41;26.80;99.90
9527;DHT22;4802;51.494;6.770;2022-07-30T16:22:12;26.80;99.90
9527;DHT22;4802;51.494;6.770;2022-07-30T16:24:50;26.70;99.90
9527;DHT22;4802;51.494;6.770;2022-07-30T16:27:22;26.50;99.90
9527;DHT22;4802;51.494;6.770;2022-07-30T16:29:52;26.50;99.90
9527;DHT22;4802;51.494;6.770;2022-07-30T16:32:24;26.50;99.90
9527;DHT22;4802;51.494;6.770;2022-07-30T16:34:57;26.50;99.90
9527;DHT22;4802;51.494;6.770;2022-07-30T16:37:26;26.50;99.90
9527;DHT22;4802;51.494;6.770;2022-07-30T16:39:56;26.50;99.90
9527;DHT22;4802;51.494;6.770;2022-07-30T16:42:26;26.40;99.90
9527;DHT22;4802;51.494;6.770;2022-07-30T16:44:58;26.40;99.90
9527;DHT22;4802;51.494;6.770;2022-07-30T16:47:29;26.50;99.90
9527;DHT22;4802;51.494;6.770;2022-07-30T16:50:00;26.50;99.90
9527;DHT22;4802;51.494;6.770;2022-07-30T16:52:33;26.50;99.90
9527;DHT22;4802;51.494;6.770;2022-07-30T16:55:02;26.50;99.90
9527;DHT22;4802;51.494;6.770;2022-07-30T16:57:33;26.40;99.90
9527;DHT22;4802;51.494;6.770;2022-07-30T17:00:04;26.40;99.90
9527;DHT22;4802;51.494;6.770;2022-07-30T17:02:38;26.20;99.90
9527;DHT22;4802;51.494;6.770;2022-07-30T17:05:09;26.00;99.90